Olympia Regional Airport
KOLM : now visible

Airfield :











YOU CAN JOIN US ON...

 
LOGIN :

Register | Disclaimer

   EN    FR    IT 

 









Legend :    VFR   Marginal VFR   IFR   Intensive IFR   Very Intensive IFR
Visi :
Ceiling :
>= 8 km
>= 3000ft
5 to 8 km
1000 to 3000 ft
1500m to 5 km
500 to 1000 ft
800 to 1500m
200 to 500 ft
< 800m
< 200 ft
Symbols :   Thunderstorms  Fog  Heavy snow  Heavy precipitations  Wind > 20 kt






- Airport Elevation : 209 ft
- IATA code : OLM


KOLM - Olympia Regional

CURRENT METAR :
  • 290454Z AUTO 23005KT 10SM BKN050 OVC060 12/08 A3021 RMK AO2 RAE04 SLP232 P0000 T01170083

EXPIRED METARs :
  • 290354Z AUTO 26006KT 10SM -RA OVC050 12/08 A3020 RMK AO2 RAB38 SLP227 P0000 T01170078
  • 290254Z 26008KT 10SM OVC055 13/07 A3020 RMK AO2 SLP225 T01330067 51012
  • 290154Z 26008KT 10SM OVC055 14/08 A3018 RMK AO2 SLP221 T01440078
  • 290054Z 24010KT 10SM BKN050 OVC060 14/07 A3018 RMK AO2 SLP218 T01440067

TAF KOLM
Valid from the 29 at 00:00 until the 30 at 00:00 UTC


282329Z 2900/2924 25010KT P6SM SCT050
FM290800 20005KT P6SM BKN050
FM291500 22008KT P6SM SCT025 BKN035
FM292100 25010KT P6SM -SHRA BKN045
KZSE FIR / North America



MET'MAP, your aeronautical weather chart ! - Copyright ORBIFLY December 2007 - Disclaimer

ORBIFLY MET'MAP TEAM :

Programming & Development : Alexandra Zaïnal
Original concept : Baudouin d'Aumeries
Technical & hardware support : Manuel Goepfert
Assistance : Marc-Olivier Méhu




SOURCES & CREDITS :

   NOAA       Earth
Advisory